Etusivu
METAR-TAF:

METAR-TAF

Lentoasemat :

Vaasan lentoasema

Vaasa, Suomi

Leveyspiiri: 63-03N, Pituuspiiri: 021-46E, korkeus merenpinnasta: 4 m

Tämänhetkinen sää

Tämä raportti tehtiin 31 minuuttia sitten, kello 22.50 UTC
Tuuli 1 kn eri suunnista
Lämpötila 6°C
Kosteus 70%
Ilmanpaine 1028 hPa
Näkyvyys 10 km tai enemmän
ei pilviä alle 1500 m:ssä eikä cumulonimbus-pilviä

METAR: EFVA 242250Z AUTO VRB01KT CAVOK 06/01 Q1028

Aika: 02:21 (23:21 UTC)

Sääennuste

Tämä raportti tehtiin 2 tuntia ja 54 minuuttia sitten, kello 20.27 UTC
Ennuste voimassa 24. päivästä klo 21 UTC - 25. päivään klo 21 UTC
Tuuli 2 kn etelästä/kaakosta
Näkyvyys 10 km tai enemmän
ei pilviä alle 1500 m:ssä eikä cumulonimbus-pilviä
Tulossa
25. päivästä klo 10 UTC - 25. päivään klo 12 UTC
Tuuli 12 kn lounaasta

TAF: EFVA 242027Z 2421/2521 15002KT CAVOK BECMG 2510/2512 22012KT

Säähavainnot ja -ennusteet yli 4000 lentoasemalta (METAR- ja TAF-raportit).

Käytössä olevat sääasemat on merkitty karttaan keltaisilla ja punaisilla pisteillä.

Aseta hiiri pisteen päälle nähdäksesi sääaseman nimen.

Klikkaa sitten nähdäksesi säähavainnot ja -ennusteet.

Kartan vaihtaminen: klikkaa mustalla rastilla varustettuja vihreitä pisteitä, niin voit zoomata sisään; viivalla varustettua vihreää pistettä, niin voit zoomata ulos tai vihreitä nuolia, niin pääset viereisille kartoille.


METAR-TAF: